createdAt,value
2017-10-19T00:00:33.382Z,99.90
2017-10-19T00:03:01.765Z,99.90
2017-10-19T00:05:29.305Z,99.90
2017-10-19T00:07:57.849Z,99.90
2017-10-19T00:10:25.416Z,99.90
2017-10-19T00:12:53.018Z,99.90
2017-10-19T00:15:20.879Z,99.90
2017-10-19T00:17:49.248Z,99.90
2017-10-19T00:20:17.718Z,99.90
2017-10-19T00:22:45.298Z,99.90
2017-10-19T00:25:13.646Z,99.90
2017-10-19T00:27:41.204Z,99.90
2017-10-19T00:30:08.763Z,99.90
2017-10-19T00:32:36.303Z,99.90
2017-10-19T00:35:03.902Z,99.90
2017-10-19T00:37:31.508Z,99.90
2017-10-19T00:39:59.833Z,99.90
2017-10-19T00:42:27.441Z,99.90
2017-10-19T00:44:55.047Z,99.90
2017-10-19T00:47:22.611Z,99.90
2017-10-19T00:49:50.147Z,99.90
2017-10-19T00:52:18.934Z,99.90
2017-10-19T00:54:46.486Z,99.90
2017-10-19T00:57:14.042Z,99.90
2017-10-19T00:59:41.626Z,99.90
2017-10-19T01:02:09.203Z,99.90
2017-10-19T01:04:37.514Z,99.90
2017-10-19T01:07:05.096Z,99.90
2017-10-19T01:09:32.660Z,99.90
2017-10-19T01:12:00.221Z,99.90
2017-10-19T01:14:27.780Z,99.90
2017-10-19T01:16:55.327Z,99.90
2017-10-19T01:19:22.919Z,99.90
2017-10-19T01:21:50.486Z,99.90
2017-10-19T01:24:18.067Z,99.90
2017-10-19T01:26:45.609Z,99.90
2017-10-19T01:29:13.216Z,99.90
2017-10-19T01:31:40.842Z,99.90
2017-10-19T01:34:08.412Z,99.90
2017-10-19T01:36:36.002Z,99.90
2017-10-19T01:39:03.607Z,99.90
2017-10-19T01:41:31.247Z,99.90
2017-10-19T01:43:58.786Z,99.90
2017-10-19T01:46:26.357Z,99.90
2017-10-19T01:48:53.930Z,99.90
2017-10-19T01:51:21.536Z,99.90
2017-10-19T01:53:49.857Z,99.90
2017-10-19T01:56:17.444Z,99.90
2017-10-19T01:58:44.987Z,99.90
2017-10-19T02:01:12.557Z,99.90
2017-10-19T02:03:40.118Z,99.90
2017-10-19T02:06:07.672Z,99.90
2017-10-19T02:08:35.280Z,99.90
2017-10-19T02:11:02.863Z,99.90
2017-10-19T02:13:31.202Z,99.90
2017-10-19T02:15:58.785Z,99.90
2017-10-19T02:18:26.378Z,99.90
2017-10-19T02:20:54.718Z,99.90
2017-10-19T02:23:22.251Z,99.90
2017-10-19T02:25:49.835Z,99.90
2017-10-19T02:28:17.390Z,99.90
2017-10-19T02:30:44.991Z,99.90
2017-10-19T02:33:12.524Z,99.90
2017-10-19T02:35:40.097Z,99.90
2017-10-19T02:38:07.637Z,99.90
2017-10-19T02:40:35.191Z,99.90
2017-10-19T02:43:02.729Z,99.90
2017-10-19T02:45:31.062Z,99.90
2017-10-19T02:47:58.625Z,99.90
2017-10-19T02:50:26.199Z,99.90
2017-10-19T02:52:53.756Z,99.90
2017-10-19T02:55:21.296Z,99.90
2017-10-19T02:57:48.883Z,99.90
2017-10-19T03:00:16.465Z,99.90
2017-10-19T03:02:44.029Z,99.90
2017-10-19T03:05:11.612Z,99.90
2017-10-19T03:07:39.189Z,99.90
2017-10-19T03:10:06.752Z,99.90
2017-10-19T03:12:34.296Z,99.90
2017-10-19T03:15:01.862Z,99.90
2017-10-19T03:17:29.646Z,99.90
2017-10-19T03:19:57.246Z,99.90
2017-10-19T03:22:25.584Z,99.90
2017-10-19T03:24:53.935Z,99.90
2017-10-19T03:27:21.485Z,99.90
2017-10-19T03:29:49.067Z,99.90
2017-10-19T03:32:16.667Z,99.90
2017-10-19T03:34:44.192Z,99.90
2017-10-19T03:37:11.748Z,99.90
2017-10-19T03:39:39.324Z,99.90
2017-10-19T03:42:06.900Z,99.90
2017-10-19T03:44:34.486Z,99.90
2017-10-19T03:47:02.048Z,99.90
2017-10-19T03:49:29.623Z,99.90
2017-10-19T03:51:57.195Z,99.90
2017-10-19T03:54:24.743Z,99.90
2017-10-19T03:56:52.313Z,99.90
2017-10-19T03:59:19.868Z,99.90
2017-10-19T04:01:47.517Z,99.90
2017-10-19T04:04:15.081Z,99.90
2017-10-19T04:06:42.642Z,99.90
2017-10-19T04:09:10.226Z,99.90
2017-10-19T04:11:37.752Z,99.90
2017-10-19T04:14:05.333Z,99.90
2017-10-19T04:16:32.876Z,99.90
2017-10-19T04:19:00.447Z,99.90
2017-10-19T04:21:28.001Z,99.90
2017-10-19T04:23:55.536Z,99.90
2017-10-19T04:26:23.120Z,99.90
2017-10-19T04:28:50.701Z,99.90
2017-10-19T04:31:18.243Z,99.90
2017-10-19T04:33:46.553Z,99.90
2017-10-19T04:36:14.098Z,99.90
2017-10-19T04:38:41.638Z,99.90
2017-10-19T04:41:09.242Z,99.90
2017-10-19T04:43:36.807Z,99.90
2017-10-19T04:46:04.497Z,99.90
2017-10-19T04:48:32.084Z,99.90
2017-10-19T04:50:59.632Z,99.90
2017-10-19T04:53:27.211Z,99.90
2017-10-19T04:55:54.853Z,99.90
2017-10-19T04:58:23.648Z,99.90
2017-10-19T05:00:51.234Z,99.90
2017-10-19T05:03:18.786Z,99.90
2017-10-19T05:05:46.396Z,99.90
2017-10-19T05:08:14.716Z,99.90
2017-10-19T05:10:42.359Z,99.90
2017-10-19T05:13:10.821Z,99.90
2017-10-19T05:15:39.209Z,99.90
2017-10-19T05:18:07.565Z,99.90
2017-10-19T05:20:35.893Z,99.90
2017-10-19T05:23:03.532Z,99.90
2017-10-19T05:25:31.073Z,99.90
2017-10-19T05:27:58.641Z,99.90
2017-10-19T05:30:26.216Z,99.90
2017-10-19T05:32:54.610Z,99.90
2017-10-19T05:35:22.160Z,99.90
2017-10-19T05:37:49.720Z,99.90
2017-10-19T05:40:17.299Z,99.90
2017-10-19T05:42:45.669Z,99.90
2017-10-19T05:45:13.271Z,99.90
2017-10-19T05:47:40.873Z,99.90
2017-10-19T05:50:08.476Z,99.90
2017-10-19T05:52:37.072Z,99.90
2017-10-19T05:55:04.716Z,99.90
2017-10-19T05:57:32.286Z,99.90
2017-10-19T05:59:59.865Z,99.90
2017-10-19T06:02:27.418Z,99.90
2017-10-19T06:04:55.049Z,99.90
2017-10-19T06:07:22.621Z,99.90
2017-10-19T06:09:50.186Z,99.90
2017-10-19T06:12:18.539Z,99.90
2017-10-19T06:14:46.125Z,99.90
2017-10-19T06:17:13.705Z,99.90
2017-10-19T06:19:41.285Z,99.90
2017-10-19T06:22:09.097Z,99.90
2017-10-19T06:24:36.653Z,99.90
2017-10-19T06:27:04.394Z,99.90
2017-10-19T06:29:33.547Z,99.90
2017-10-19T06:32:01.129Z,99.90
2017-10-19T06:34:29.598Z,99.90
2017-10-19T06:36:57.473Z,99.90
2017-10-19T06:39:25.166Z,99.90
2017-10-19T06:41:53.695Z,99.90
2017-10-19T06:44:21.985Z,99.90
2017-10-19T06:46:50.286Z,99.90
2017-10-19T06:49:17.824Z,99.90
2017-10-19T06:51:55.314Z,99.90
2017-10-19T06:54:23.606Z,99.90
2017-10-19T06:56:51.165Z,99.90
2017-10-19T06:59:19.483Z,99.90
2017-10-19T07:01:47.019Z,99.90
2017-10-19T07:04:14.560Z,99.90
2017-10-19T07:06:42.154Z,99.90
2017-10-19T07:09:09.702Z,99.90
2017-10-19T07:11:37.487Z,99.90
2017-10-19T07:14:05.091Z,99.90
2017-10-19T07:16:32.647Z,99.90
2017-10-19T07:19:00.192Z,99.90
2017-10-19T07:21:27.738Z,99.90
2017-10-19T07:23:56.028Z,99.90
2017-10-19T07:26:23.618Z,99.90
2017-10-19T07:28:51.162Z,99.90
2017-10-19T07:31:18.727Z,99.90
2017-10-19T07:33:46.276Z,99.90
2017-10-19T07:36:15.658Z,99.90
2017-10-19T07:38:43.193Z,99.90
2017-10-19T07:41:10.768Z,99.90
2017-10-19T07:43:38.344Z,99.90
2017-10-19T07:46:05.921Z,99.90
2017-10-19T07:48:33.473Z,99.90
2017-10-19T07:51:02.073Z,99.90
2017-10-19T07:53:29.615Z,99.90
2017-10-19T07:55:57.185Z,99.90
2017-10-19T07:58:25.740Z,99.90
2017-10-19T08:00:53.283Z,99.90
2017-10-19T08:03:20.864Z,99.90
2017-10-19T08:05:48.403Z,99.90
2017-10-19T08:08:15.946Z,99.90
2017-10-19T08:10:44.288Z,99.90
2017-10-19T08:13:11.907Z,99.90
2017-10-19T08:15:39.463Z,99.90
2017-10-19T08:18:07.871Z,99.90
2017-10-19T08:20:36.205Z,99.90
2017-10-19T08:23:03.754Z,99.90
2017-10-19T08:25:31.339Z,99.90
2017-10-19T08:27:58.888Z,99.90
2017-10-19T08:30:27.436Z,96.50
2017-10-19T08:32:55.210Z,94.80
2017-10-19T08:35:22.723Z,93.50
2017-10-19T08:37:50.271Z,91.80
2017-10-19T08:40:17.803Z,87.90
2017-10-19T08:42:45.356Z,87.60
2017-10-19T08:45:13.664Z,84.20
2017-10-19T08:47:41.243Z,84.10
2017-10-19T08:50:08.789Z,76.00
2017-10-19T08:52:36.365Z,70.70
2017-10-19T08:55:07.774Z,68.30
2017-10-19T08:57:36.113Z,65.30
2017-10-19T09:00:03.658Z,65.10
2017-10-19T09:02:31.207Z,59.80
2017-10-19T09:04:58.792Z,58.30
2017-10-19T09:07:26.383Z,57.40
2017-10-19T09:09:53.918Z,56.50
2017-10-19T09:12:21.564Z,55.60
2017-10-19T09:14:49.165Z,57.20
2017-10-19T09:17:16.703Z,58.90
2017-10-19T09:19:44.254Z,61.00
2017-10-19T09:22:11.846Z,60.90
2017-10-19T09:24:39.388Z,65.30
2017-10-19T09:27:07.005Z,65.90
2017-10-19T09:29:34.558Z,67.00
2017-10-19T09:32:02.128Z,70.00
2017-10-19T09:34:29.734Z,70.00
2017-10-19T09:36:58.065Z,73.90
2017-10-19T09:39:25.640Z,73.90
2017-10-19T09:41:53.201Z,73.00
2017-10-19T09:44:20.757Z,70.70
2017-10-19T09:46:48.327Z,71.50
2017-10-19T09:49:15.884Z,71.90
2017-10-19T09:51:43.413Z,71.20
2017-10-19T09:54:10.957Z,73.20
2017-10-19T09:56:39.264Z,78.10
2017-10-19T09:59:06.845Z,78.10
2017-10-19T10:01:34.406Z,79.90
2017-10-19T10:04:01.973Z,83.00
2017-10-19T10:06:29.509Z,83.00
2017-10-19T10:08:57.074Z,82.90
2017-10-19T10:11:25.402Z,84.20
2017-10-19T10:13:52.962Z,84.10
2017-10-19T10:16:20.507Z,86.60
2017-10-19T10:18:48.107Z,83.70
2017-10-19T10:21:15.672Z,85.40
2017-10-19T10:23:43.211Z,84.80
2017-10-19T10:26:10.797Z,85.70
2017-10-19T10:28:38.424Z,83.80
2017-10-19T10:31:05.993Z,84.40
2017-10-19T10:33:33.519Z,83.10
2017-10-19T10:36:01.868Z,80.10
2017-10-19T10:38:29.443Z,80.00
2017-10-19T10:40:56.992Z,77.50
2017-10-19T10:43:24.543Z,73.30
2017-10-19T10:45:52.301Z,81.50
2017-10-19T10:48:19.881Z,79.40
2017-10-19T10:50:47.928Z,70.20
2017-10-19T10:53:15.541Z,73.80
2017-10-19T10:55:43.134Z,75.60
2017-10-19T10:58:10.773Z,75.20
2017-10-19T11:00:38.394Z,76.30
2017-10-19T11:03:06.785Z,74.40
2017-10-19T11:05:34.381Z,74.40
2017-10-19T11:08:01.976Z,73.10
2017-10-19T11:10:29.642Z,75.90
2017-10-19T11:12:57.307Z,74.20
2017-10-19T11:15:24.870Z,74.40
2017-10-19T11:17:52.474Z,74.20
2017-10-19T11:20:20.242Z,75.10
2017-10-19T11:22:47.804Z,71.90
2017-10-19T11:25:17.123Z,68.00
2017-10-19T11:27:44.713Z,68.00
2017-10-19T11:30:13.007Z,63.90
2017-10-19T11:32:40.830Z,64.80
2017-10-19T11:35:08.628Z,62.50
2017-10-19T11:37:37.270Z,66.20
2017-10-19T11:40:06.166Z,65.40
2017-10-19T11:42:35.326Z,64.30
2017-10-19T11:45:03.032Z,60.20
2017-10-19T11:47:32.346Z,58.30
2017-10-19T11:50:00.694Z,55.30
2017-10-19T11:52:28.296Z,55.10
2017-10-19T11:54:55.856Z,54.40
2017-10-19T11:57:24.217Z,53.30
2017-10-19T11:59:51.796Z,53.30
2017-10-19T12:02:20.264Z,52.60
2017-10-19T12:04:47.824Z,52.60
2017-10-19T12:07:15.434Z,54.40
2017-10-19T12:09:43.026Z,55.40
2017-10-19T12:12:10.584Z,55.10
2017-10-19T12:14:38.200Z,56.00
2017-10-19T12:17:05.802Z,53.40
2017-10-19T12:19:33.395Z,49.50
2017-10-19T12:22:00.981Z,47.00
2017-10-19T12:24:28.556Z,47.20
2017-10-19T12:26:56.159Z,46.40
2017-10-19T12:29:23.708Z,43.80
2017-10-19T12:31:52.061Z,42.90
2017-10-19T12:34:19.627Z,42.90
2017-10-19T12:36:47.248Z,43.40
2017-10-19T12:39:14.790Z,42.30
2017-10-19T12:41:43.111Z,41.30
2017-10-19T12:44:10.674Z,41.30
2017-10-19T12:46:38.213Z,40.70
2017-10-19T12:49:05.873Z,42.80
2017-10-19T12:51:33.511Z,43.70
2017-10-19T12:54:01.820Z,45.70
2017-10-19T12:56:30.244Z,45.80
2017-10-19T12:58:57.814Z,48.50
2017-10-19T13:01:25.444Z,50.00
2017-10-19T13:03:53.067Z,51.30
2017-10-19T13:06:20.628Z,52.20
2017-10-19T13:08:49.030Z,51.40
2017-10-19T13:11:17.399Z,52.20
2017-10-19T13:13:44.965Z,52.20
2017-10-19T13:16:12.571Z,50.60
2017-10-19T13:18:41.385Z,51.40
2017-10-19T13:21:09.150Z,52.50
2017-10-19T13:23:36.837Z,52.70
2017-10-19T13:26:04.424Z,53.60
2017-10-19T13:28:33.543Z,55.20
2017-10-19T13:31:01.123Z,54.70
2017-10-19T13:33:29.584Z,55.40
2017-10-19T13:35:57.149Z,55.40
2017-10-19T13:38:25.586Z,57.40
2017-10-19T13:40:53.107Z,57.40
2017-10-19T13:43:21.445Z,57.90
2017-10-19T13:45:49.259Z,57.90
2017-10-19T13:48:17.613Z,60.20
2017-10-19T13:50:45.212Z,60.20
2017-10-19T13:53:13.645Z,60.00
2017-10-19T13:55:42.910Z,60.00
2017-10-19T13:58:13.473Z,62.00
2017-10-19T14:00:45.601Z,61.50
2017-10-19T14:03:13.916Z,58.10
2017-10-19T14:05:41.596Z,58.10
2017-10-19T14:08:09.154Z,57.40
2017-10-19T14:10:36.840Z,56.20
2017-10-19T14:13:04.489Z,55.40
2017-10-19T14:15:33.276Z,57.00
2017-10-19T14:18:00.890Z,58.20
2017-10-19T14:20:28.610Z,59.90
2017-10-19T14:22:57.680Z,64.60
2017-10-19T14:25:26.068Z,65.60
2017-10-19T14:27:54.129Z,66.30
2017-10-19T14:30:22.481Z,67.80
2017-10-19T14:32:50.075Z,67.70
2017-10-19T14:35:18.489Z,67.70
2017-10-19T14:37:46.202Z,67.70
2017-10-19T14:40:13.763Z,68.60
2017-10-19T14:42:41.484Z,69.50
2017-10-19T14:45:10.403Z,70.60
2017-10-19T14:47:37.959Z,70.60
2017-10-19T14:50:06.048Z,70.60
2017-10-19T14:52:33.966Z,69.90
2017-10-19T14:55:03.466Z,71.70
2017-10-19T14:57:31.805Z,70.80
2017-10-19T14:59:59.502Z,70.60
2017-10-19T15:02:27.188Z,70.10
2017-10-19T15:04:55.812Z,70.90
2017-10-19T15:07:23.391Z,70.80
2017-10-19T15:09:50.988Z,70.60
2017-10-19T15:12:18.655Z,71.00
2017-10-19T15:14:47.060Z,74.60
2017-10-19T15:17:14.693Z,74.60
2017-10-19T15:19:42.306Z,74.20
2017-10-19T15:22:11.752Z,76.60
2017-10-19T15:24:39.383Z,76.60
2017-10-19T15:27:07.961Z,77.30
2017-10-19T15:29:35.669Z,78.40
2017-10-19T15:32:03.359Z,79.40
2017-10-19T15:34:30.933Z,79.80
2017-10-19T15:36:58.504Z,80.70
2017-10-19T15:39:26.897Z,81.80
2017-10-19T15:41:54.527Z,81.80
2017-10-19T15:44:22.147Z,82.90
2017-10-19T15:46:49.779Z,82.90
2017-10-19T15:49:17.464Z,83.80
2017-10-19T15:51:46.050Z,85.30
2017-10-19T15:54:13.735Z,85.30
2017-10-19T15:56:41.539Z,86.30
2017-10-19T15:59:10.101Z,87.30
2017-10-19T16:01:37.807Z,87.30
2017-10-19T16:04:06.276Z,88.50
2017-10-19T16:06:33.965Z,88.50
2017-10-19T16:09:01.662Z,89.50
2017-10-19T16:11:29.593Z,90.30
2017-10-19T16:13:57.913Z,91.50
2017-10-19T16:16:25.582Z,92.90
2017-10-19T16:18:53.310Z,94.00
2017-10-19T16:21:21.015Z,96.10
2017-10-19T16:23:48.628Z,99.00
2017-10-19T16:26:16.212Z,99.90
2017-10-19T16:28:44.072Z,99.90
2017-10-19T16:31:11.636Z,99.90
2017-10-19T16:33:39.233Z,99.90
2017-10-19T16:36:06.787Z,99.90
2017-10-19T16:38:34.494Z,99.90
2017-10-19T16:41:02.086Z,99.90
2017-10-19T16:43:29.819Z,99.90
2017-10-19T16:45:57.458Z,99.90
2017-10-19T16:48:25.210Z,99.90
2017-10-19T16:50:52.784Z,99.90
2017-10-19T16:53:20.674Z,99.90
2017-10-19T16:55:48.306Z,99.90
2017-10-19T16:58:16.009Z,99.90
2017-10-19T17:00:43.924Z,99.90
2017-10-19T17:03:12.261Z,99.90
2017-10-19T17:05:39.907Z,99.90
2017-10-19T17:10:52.559Z,99.90
2017-10-19T17:13:27.942Z,99.90
2017-10-19T17:15:56.095Z,99.90
2017-10-19T17:18:23.705Z,99.90
2017-10-19T17:20:51.330Z,99.90
2017-10-19T17:23:20.113Z,99.90
2017-10-19T17:25:47.993Z,99.90
2017-10-19T17:28:16.367Z,99.90
2017-10-19T17:30:45.049Z,99.90
2017-10-19T17:33:13.826Z,99.90
2017-10-19T17:35:42.532Z,99.90
2017-10-19T17:38:11.439Z,99.90
2017-10-19T17:40:41.256Z,99.90
2017-10-19T17:43:16.349Z,99.90
2017-10-19T17:45:46.041Z,99.90
2017-10-19T17:48:15.782Z,99.90
2017-10-19T17:50:44.533Z,99.90
2017-10-19T17:53:12.896Z,99.90
2017-10-19T17:55:40.498Z,99.90
2017-10-19T17:58:08.881Z,99.90
2017-10-19T18:00:39.366Z,99.90
2017-10-19T18:03:09.017Z,99.90
2017-10-19T18:05:37.011Z,99.90
2017-10-19T18:08:04.930Z,99.90
2017-10-19T18:10:32.665Z,99.90
2017-10-19T18:13:00.430Z,99.90
2017-10-19T18:15:28.203Z,99.90
2017-10-19T18:17:55.845Z,99.90
2017-10-19T18:20:23.673Z,99.90
2017-10-19T18:22:51.350Z,99.90
2017-10-19T18:25:19.936Z,99.90
2017-10-19T18:27:48.382Z,99.90
2017-10-19T18:30:15.966Z,99.90
2017-10-19T18:32:43.527Z,99.90
2017-10-19T18:35:11.244Z,99.90
2017-10-19T18:37:38.855Z,99.90
2017-10-19T18:40:06.940Z,99.90
2017-10-19T18:42:34.933Z,99.90
2017-10-19T18:45:03.300Z,99.90
2017-10-19T18:47:32.388Z,99.90
2017-10-19T18:50:00.080Z,99.90
2017-10-19T18:52:27.621Z,99.90
2017-10-19T18:54:55.390Z,99.90
2017-10-19T18:57:22.960Z,99.90
2017-10-19T18:59:54.152Z,99.90
2017-10-19T19:02:24.012Z,99.90
2017-10-19T19:04:54.732Z,99.90
2017-10-19T19:07:22.600Z,99.90
2017-10-19T19:09:50.151Z,99.90
2017-10-19T19:12:20.910Z,99.90
2017-10-19T19:14:50.637Z,99.90
2017-10-19T19:17:18.216Z,99.90
2017-10-19T19:19:45.927Z,99.90
2017-10-19T19:22:14.308Z,99.90
2017-10-19T19:24:42.644Z,99.90
2017-10-19T19:27:10.399Z,99.90
2017-10-19T19:29:38.133Z,99.90
2017-10-19T19:32:05.774Z,99.90
2017-10-19T19:34:33.555Z,99.90
2017-10-19T19:37:01.890Z,99.90
2017-10-19T19:39:29.906Z,99.90
2017-10-19T19:41:57.921Z,99.90
2017-10-19T19:44:26.347Z,99.90
2017-10-19T19:46:53.897Z,99.90
2017-10-19T19:49:21.569Z,99.90
2017-10-19T19:51:49.136Z,99.90
2017-10-19T19:54:16.823Z,99.90
2017-10-19T19:56:45.264Z,99.90
2017-10-19T19:59:12.860Z,99.90
2017-10-19T20:01:40.449Z,99.90
2017-10-19T20:04:10.979Z,99.90
2017-10-19T20:06:38.550Z,99.90
2017-10-19T20:09:07.867Z,99.90
2017-10-19T20:11:36.192Z,99.90
2017-10-19T20:14:03.827Z,99.90
2017-10-19T20:16:33.734Z,99.90
2017-10-19T20:19:02.063Z,99.90
2017-10-19T20:21:31.350Z,99.90
2017-10-19T20:23:59.028Z,99.90
2017-10-19T20:26:26.609Z,99.90
2017-10-19T20:28:54.170Z,99.90
2017-10-19T20:31:21.863Z,99.90
2017-10-19T20:33:53.378Z,99.90
2017-10-19T20:36:24.359Z,99.90
2017-10-19T20:38:56.337Z,99.90
2017-10-19T20:41:30.358Z,99.90
2017-10-19T20:43:58.038Z,99.90
2017-10-19T20:46:25.602Z,99.90
2017-10-19T20:48:53.215Z,99.90
2017-10-19T20:51:20.814Z,99.90
2017-10-19T20:53:49.164Z,99.90
2017-10-19T20:56:16.721Z,99.90
2017-10-19T20:58:44.281Z,99.90
2017-10-19T21:01:11.864Z,99.90
2017-10-19T21:03:39.424Z,99.90
2017-10-19T21:06:07.012Z,99.90
2017-10-19T21:08:34.629Z,99.90
2017-10-19T21:11:02.245Z,99.90
2017-10-19T21:13:30.583Z,99.90
2017-10-19T21:15:58.225Z,99.90
2017-10-19T21:18:25.833Z,99.90
2017-10-19T21:20:53.429Z,99.90
2017-10-19T21:23:22.769Z,99.90
2017-10-19T21:25:50.361Z,99.90
2017-10-19T21:28:17.953Z,99.90
2017-10-19T21:30:45.528Z,99.90
2017-10-19T21:33:13.559Z,99.90
2017-10-19T21:35:41.301Z,99.90
2017-10-19T21:38:08.883Z,99.90
2017-10-19T21:40:36.715Z,99.90
2017-10-19T21:43:04.338Z,99.90
2017-10-19T21:45:31.963Z,99.90
2017-10-19T21:47:59.531Z,99.90
2017-10-19T21:50:28.202Z,99.90
2017-10-19T21:52:55.830Z,99.90
2017-10-19T21:55:25.232Z,99.90
2017-10-19T21:57:52.806Z,99.90
2017-10-19T22:00:20.833Z,99.90
2017-10-19T22:02:48.463Z,99.90
2017-10-19T22:05:17.028Z,99.90
2017-10-19T22:07:44.723Z,99.90
2017-10-19T22:10:12.455Z,99.90
2017-10-19T22:12:40.032Z,99.90
2017-10-19T22:15:07.589Z,99.90
2017-10-19T22:17:35.167Z,99.90
2017-10-19T22:20:02.798Z,99.90
2017-10-19T22:22:30.421Z,99.90
2017-10-19T22:24:58.809Z,99.90
2017-10-19T22:27:26.377Z,99.90
2017-10-19T22:29:54.715Z,99.90
2017-10-19T22:32:23.078Z,99.90
2017-10-19T22:34:51.446Z,99.90
2017-10-19T22:37:19.005Z,99.90
2017-10-19T22:39:46.601Z,99.90
2017-10-19T22:42:14.186Z,99.90
2017-10-19T22:44:41.800Z,99.90
2017-10-19T22:47:10.158Z,99.90
2017-10-19T22:49:37.700Z,99.90
2017-10-19T22:52:05.313Z,99.90
2017-10-19T22:54:33.629Z,99.90
2017-10-19T22:57:01.261Z,99.90
2017-10-19T22:59:29.779Z,99.90
2017-10-19T23:01:57.350Z,99.90
2017-10-19T23:04:24.930Z,99.90
2017-10-19T23:06:52.573Z,99.90
2017-10-19T23:09:20.132Z,99.90
2017-10-19T23:11:47.814Z,99.90
2017-10-19T23:14:15.420Z,99.90
2017-10-19T23:16:43.807Z,99.90
2017-10-19T23:19:11.404Z,99.90
2017-10-19T23:21:38.996Z,99.90
2017-10-19T23:24:06.568Z,99.90
2017-10-19T23:26:34.128Z,99.90
2017-10-19T23:29:01.741Z,99.90
2017-10-19T23:31:29.304Z,99.90
2017-10-19T23:33:57.642Z,99.90
2017-10-19T23:36:25.212Z,99.90
2017-10-19T23:38:52.737Z,99.90
2017-10-19T23:41:20.291Z,99.90
2017-10-19T23:43:47.886Z,99.90
2017-10-19T23:46:16.470Z,99.90
2017-10-19T23:48:44.062Z,99.90
2017-10-19T23:51:11.693Z,99.90
2017-10-19T23:53:39.371Z,99.90
2017-10-19T23:56:06.937Z,99.90
2017-10-19T23:58:34.498Z,99.90
